createdAt,value
2023-06-30T00:00:18.604Z,5.47
2023-06-30T00:02:49.226Z,5.47
2023-06-30T00:05:16.326Z,5.49
2023-06-30T00:07:46.727Z,5.36
2023-06-30T00:10:13.547Z,5.48
2023-06-30T00:12:40.313Z,5.20
2023-06-30T00:15:07.361Z,5.35
2023-06-30T00:17:34.264Z,5.54
2023-06-30T00:20:01.236Z,5.30
2023-06-30T00:22:28.152Z,5.42
2023-06-30T00:24:56.828Z,5.71
2023-06-30T00:27:24.150Z,5.74
2023-06-30T00:29:50.998Z,5.48
2023-06-30T00:32:20.149Z,5.56
2023-06-30T00:34:47.114Z,5.13
2023-06-30T00:37:15.433Z,4.89
2023-06-30T00:39:42.288Z,4.80
2023-06-30T00:42:09.567Z,5.23
2023-06-30T00:44:36.622Z,4.96
2023-06-30T00:47:03.932Z,5.58
2023-06-30T00:49:32.352Z,5.33
2023-06-30T00:52:01.124Z,5.05
2023-06-30T00:54:28.615Z,5.03
2023-06-30T00:56:55.843Z,5.32
2023-06-30T00:59:23.128Z,5.21
2023-06-30T01:01:59.947Z,5.01
2023-06-30T01:04:32.833Z,5.13
2023-06-30T01:07:07.924Z,5.27
2023-06-30T01:09:39.992Z,5.19
2023-06-30T01:12:08.705Z,4.84
2023-06-30T01:14:37.596Z,4.96
2023-06-30T01:17:06.967Z,5.16
2023-06-30T01:19:45.947Z,4.83
2023-06-30T01:22:20.816Z,4.89
2023-06-30T01:24:50.490Z,4.92
2023-06-30T01:27:17.609Z,5.07
2023-06-30T01:29:44.896Z,5.08
2023-06-30T01:32:18.081Z,4.85
2023-06-30T01:34:46.381Z,5.08
2023-06-30T01:37:14.790Z,4.84
2023-06-30T01:39:41.824Z,5.04
2023-06-30T01:42:09.545Z,4.69
2023-06-30T01:44:37.626Z,4.69
2023-06-30T01:47:05.894Z,4.40
2023-06-30T01:49:34.418Z,4.32
2023-06-30T01:52:02.404Z,4.34
2023-06-30T01:54:29.598Z,4.69
2023-06-30T01:56:56.518Z,4.91
2023-06-30T01:59:23.692Z,4.91
2023-06-30T02:01:50.551Z,4.76
2023-06-30T02:04:17.703Z,4.78
2023-06-30T02:06:47.785Z,4.91
2023-06-30T02:09:14.649Z,4.83
2023-06-30T02:11:41.463Z,5.06
2023-06-30T02:14:08.229Z,5.16
2023-06-30T02:16:35.006Z,4.93
2023-06-30T02:19:01.821Z,4.72
2023-06-30T02:21:28.608Z,4.86
2023-06-30T02:23:55.579Z,5.12
2023-06-30T02:26:22.425Z,5.11
2023-06-30T02:28:50.054Z,5.08
2023-06-30T02:31:17.769Z,5.18
2023-06-30T02:33:44.833Z,4.94
2023-06-30T02:36:11.801Z,5.07
2023-06-30T02:38:38.579Z,4.94
2023-06-30T02:41:05.387Z,4.69
2023-06-30T02:43:32.136Z,4.79
2023-06-30T02:45:59.498Z,4.77
2023-06-30T02:48:27.994Z,4.88
2023-06-30T02:50:54.965Z,4.94
2023-06-30T02:53:21.798Z,4.95
2023-06-30T02:55:49.158Z,5.21
2023-06-30T02:58:16.370Z,4.84
2023-06-30T03:00:43.164Z,5.08
2023-06-30T03:03:11.054Z,5.11
2023-06-30T03:05:38.879Z,5.40
2023-06-30T03:08:07.895Z,5.13
2023-06-30T03:10:34.754Z,5.03
2023-06-30T03:13:01.565Z,5.00
2023-06-30T03:15:29.076Z,5.19
2023-06-30T03:17:56.753Z,5.14
2023-06-30T03:20:24.755Z,4.97
2023-06-30T03:22:54.260Z,5.07
2023-06-30T03:25:21.228Z,5.00
2023-06-30T03:27:48.520Z,5.21
2023-06-30T03:30:17.325Z,5.20
2023-06-30T03:32:46.731Z,5.22
2023-06-30T03:35:16.212Z,5.19
2023-06-30T03:37:43.004Z,5.23
2023-06-30T03:40:10.995Z,4.86
2023-06-30T03:42:38.202Z,5.30
2023-06-30T03:45:05.913Z,5.36
2023-06-30T03:47:33.941Z,5.06
2023-06-30T03:50:00.912Z,4.67
2023-06-30T03:52:27.804Z,5.13
2023-06-30T03:54:54.962Z,5.42
2023-06-30T03:57:21.795Z,5.51
2023-06-30T03:59:48.620Z,5.59
2023-06-30T04:02:15.507Z,5.68
2023-06-30T04:04:42.350Z,5.16
2023-06-30T04:07:09.317Z,4.71
2023-06-30T04:09:36.484Z,5.00
2023-06-30T04:12:03.754Z,5.37
2023-06-30T04:14:30.659Z,5.68
2023-06-30T04:16:59.305Z,5.66
2023-06-30T04:19:26.420Z,5.74
2023-06-30T04:21:53.272Z,5.42
2023-06-30T04:24:20.888Z,5.62
2023-06-30T04:26:47.656Z,5.13
2023-06-30T04:29:16.514Z,5.60
2023-06-30T04:31:44.090Z,5.57
2023-06-30T04:34:11.010Z,5.83
2023-06-30T04:36:37.820Z,5.59
2023-06-30T04:39:04.738Z,5.54
2023-06-30T04:41:31.665Z,5.58
2023-06-30T04:43:58.567Z,5.80
2023-06-30T04:46:26.601Z,6.06
2023-06-30T04:48:54.286Z,5.67
2023-06-30T04:51:21.110Z,5.66
2023-06-30T04:53:47.920Z,5.79
2023-06-30T04:56:14.714Z,5.83
2023-06-30T04:58:41.466Z,5.71
2023-06-30T05:01:08.282Z,6.07
2023-06-30T05:03:35.222Z,6.47
2023-06-30T05:06:02.041Z,5.27
2023-06-30T05:08:28.906Z,5.25
2023-06-30T05:10:55.709Z,5.77
2023-06-30T05:13:22.522Z,6.10
2023-06-30T05:15:49.763Z,5.69
2023-06-30T05:18:16.851Z,6.27
2023-06-30T05:20:43.752Z,6.22
2023-06-30T05:23:10.540Z,6.43
2023-06-30T05:25:38.071Z,6.45
2023-06-30T05:28:05.036Z,6.37
2023-06-30T05:30:31.882Z,6.37
2023-06-30T05:32:58.758Z,6.40
2023-06-30T05:35:25.536Z,6.13
2023-06-30T05:37:52.409Z,6.02
2023-06-30T05:40:19.343Z,6.11
2023-06-30T05:42:46.138Z,5.92
2023-06-30T05:45:12.932Z,6.14
2023-06-30T05:47:39.791Z,7.11
2023-06-30T05:50:07.293Z,7.75
2023-06-30T05:52:34.151Z,7.41
2023-06-30T05:55:00.989Z,6.91
2023-06-30T05:57:30.695Z,6.74
2023-06-30T05:59:57.447Z,7.31
2023-06-30T06:02:24.630Z,7.62
2023-06-30T06:04:52.928Z,7.64
2023-06-30T06:07:20.273Z,7.70
2023-06-30T06:09:47.203Z,7.42
2023-06-30T06:12:14.006Z,7.81
2023-06-30T06:14:41.092Z,7.83
2023-06-30T06:17:08.115Z,7.26
2023-06-30T06:19:35.077Z,7.68
2023-06-30T06:22:01.954Z,8.15
2023-06-30T06:24:28.994Z,7.87
2023-06-30T06:26:55.810Z,8.05
2023-06-30T06:29:25.460Z,8.50
2023-06-30T06:31:55.087Z,8.59
2023-06-30T06:34:23.117Z,7.86
2023-06-30T06:36:49.981Z,8.15
2023-06-30T06:39:16.849Z,8.51
2023-06-30T06:41:43.705Z,8.31
2023-06-30T06:44:16.201Z,8.22
2023-06-30T06:46:44.647Z,8.86
2023-06-30T06:49:11.821Z,8.68
2023-06-30T06:51:38.677Z,8.29
2023-06-30T06:54:05.464Z,8.15
2023-06-30T06:56:32.465Z,8.52
2023-06-30T06:58:59.483Z,7.86
2023-06-30T07:01:26.310Z,8.24
2023-06-30T07:03:53.203Z,8.14
2023-06-30T07:06:22.485Z,8.25
2023-06-30T07:08:50.200Z,8.80
2023-06-30T07:11:19.168Z,8.76
2023-06-30T07:13:46.003Z,8.27
2023-06-30T07:16:12.912Z,8.51
2023-06-30T07:18:39.749Z,8.70
2023-06-30T07:21:06.954Z,8.80
2023-06-30T07:23:34.190Z,7.78
2023-06-30T07:26:01.063Z,7.86
2023-06-30T07:28:27.932Z,8.14
2023-06-30T07:30:54.786Z,8.07
2023-06-30T07:33:21.638Z,8.86
2023-06-30T07:35:48.947Z,9.28
2023-06-30T07:38:16.098Z,8.87
2023-06-30T07:43:12.665Z,9.09
2023-06-30T07:45:39.518Z,8.79
2023-06-30T07:48:06.679Z,8.03
2023-06-30T07:50:33.617Z,8.61
2023-06-30T07:53:02.479Z,8.40
2023-06-30T07:55:29.395Z,8.77
2023-06-30T07:57:56.302Z,8.39
2023-06-30T08:00:29.924Z,8.78
2023-06-30T08:02:56.919Z,8.43
2023-06-30T08:05:24.256Z,8.41
2023-06-30T08:07:51.835Z,8.58
2023-06-30T08:10:19.900Z,8.75
2023-06-30T08:12:46.985Z,8.76
2023-06-30T08:15:13.953Z,8.38
2023-06-30T08:17:56.547Z,8.15
2023-06-30T08:20:28.731Z,8.47
2023-06-30T08:22:55.966Z,8.26
2023-06-30T08:25:24.507Z,8.11
2023-06-30T08:27:52.443Z,8.08
2023-06-30T08:30:22.053Z,8.13
2023-06-30T08:32:50.938Z,7.97
2023-06-30T08:35:17.866Z,8.38
2023-06-30T08:37:44.827Z,8.38
2023-06-30T08:40:12.131Z,8.35
2023-06-30T08:42:44.061Z,7.91
2023-06-30T08:45:13.731Z,7.91
2023-06-30T08:47:41.018Z,8.00
2023-06-30T08:50:09.251Z,7.82
2023-06-30T08:52:36.368Z,7.79
2023-06-30T08:55:04.185Z,7.90
2023-06-30T08:57:32.635Z,8.22
2023-06-30T08:59:59.404Z,8.29
2023-06-30T09:02:27.541Z,8.80
2023-06-30T09:04:56.051Z,8.67
2023-06-30T09:07:39.972Z,8.97
2023-06-30T09:10:10.400Z,9.29
2023-06-30T09:12:40.464Z,9.01
2023-06-30T09:15:10.219Z,9.51
2023-06-30T09:17:37.137Z,8.99
2023-06-30T09:20:04.209Z,9.07
2023-06-30T09:22:52.416Z,9.61
2023-06-30T09:25:26.974Z,8.73
2023-06-30T09:27:55.024Z,10.03
2023-06-30T09:30:35.920Z,10.07
2023-06-30T09:33:03.216Z,10.26
2023-06-30T09:35:41.514Z,9.12
2023-06-30T09:38:12.086Z,9.28
2023-06-30T09:40:38.948Z,10.01
2023-06-30T09:43:06.344Z,10.28
2023-06-30T09:45:33.190Z,10.01
2023-06-30T09:48:00.216Z,10.70
2023-06-30T09:50:28.765Z,11.19
2023-06-30T09:52:55.774Z,10.48
2023-06-30T09:55:22.597Z,11.23
2023-06-30T09:57:49.319Z,13.32
2023-06-30T10:00:33.642Z,11.16
2023-06-30T10:03:07.379Z,11.00
2023-06-30T10:05:34.447Z,10.39
2023-06-30T10:08:02.468Z,10.88
2023-06-30T10:10:30.241Z,10.68
2023-06-30T10:12:59.796Z,12.44
2023-06-30T10:15:27.778Z,14.25
2023-06-30T10:17:56.327Z,11.94
2023-06-30T10:20:33.884Z,11.19
2023-06-30T10:23:06.250Z,10.52
2023-06-30T10:25:37.650Z,11.13
2023-06-30T10:28:05.916Z,10.47
2023-06-30T10:30:33.446Z,11.02
2023-06-30T10:33:00.379Z,10.87
2023-06-30T10:35:28.885Z,10.10
2023-06-30T10:37:57.241Z,10.27
2023-06-30T10:40:26.081Z,10.49
2023-06-30T10:42:55.309Z,10.04
2023-06-30T10:45:27.521Z,10.24
2023-06-30T10:47:54.418Z,9.99
2023-06-30T10:50:21.209Z,9.72
2023-06-30T10:52:55.396Z,8.86
2023-06-30T10:55:24.057Z,9.41
2023-06-30T10:57:53.009Z,9.46
2023-06-30T11:00:22.854Z,8.67
2023-06-30T11:02:58.745Z,8.69
2023-06-30T11:05:32.726Z,8.64
2023-06-30T11:08:02.243Z,8.74
2023-06-30T11:10:34.326Z,8.39
2023-06-30T11:13:10.703Z,9.04
2023-06-30T11:15:44.291Z,8.76
2023-06-30T11:18:23.270Z,9.09
2023-06-30T11:21:06.710Z,9.27
2023-06-30T11:23:37.239Z,9.20
2023-06-30T11:26:19.151Z,9.60
2023-06-30T11:28:49.760Z,9.92
2023-06-30T11:31:17.506Z,9.40
2023-06-30T11:33:45.593Z,9.16
2023-06-30T11:36:17.524Z,9.93
2023-06-30T11:38:53.513Z,10.22
2023-06-30T11:41:23.041Z,9.27
2023-06-30T11:43:55.050Z,9.57
2023-06-30T11:46:22.936Z,9.02
2023-06-30T11:48:50.624Z,9.57
2023-06-30T11:51:20.496Z,9.59
2023-06-30T11:53:48.152Z,10.55
2023-06-30T11:56:15.342Z,11.13
2023-06-30T11:58:52.580Z,11.90
2023-06-30T12:01:22.656Z,12.12
2023-06-30T12:04:19.188Z,12.02
2023-06-30T12:06:47.014Z,12.23
2023-06-30T12:09:14.408Z,11.84
2023-06-30T12:11:46.212Z,12.72
2023-06-30T12:14:16.770Z,11.16
2023-06-30T12:16:51.123Z,10.73
2023-06-30T12:19:19.611Z,12.31
2023-06-30T12:22:02.106Z,13.91
2023-06-30T12:24:36.231Z,15.24
2023-06-30T12:27:10.042Z,13.29
2023-06-30T12:29:37.864Z,14.21
2023-06-30T12:32:15.399Z,12.84
2023-06-30T12:34:42.985Z,12.63
2023-06-30T12:37:09.888Z,13.36
2023-06-30T12:39:36.833Z,12.74
2023-06-30T12:42:03.927Z,12.91
2023-06-30T12:44:31.791Z,12.78
2023-06-30T12:47:06.815Z,12.29
2023-06-30T12:49:35.165Z,12.55
2023-06-30T12:52:03.855Z,13.72
2023-06-30T12:54:31.226Z,13.61
2023-06-30T12:56:58.180Z,13.47
2023-06-30T12:59:24.946Z,13.16
2023-06-30T13:01:51.858Z,12.65
2023-06-30T13:04:18.653Z,13.28
2023-06-30T13:06:45.479Z,12.64
2023-06-30T13:09:12.326Z,13.38
2023-06-30T13:11:39.286Z,12.40
2023-06-30T13:14:06.088Z,12.83
2023-06-30T13:16:32.976Z,14.13
2023-06-30T13:19:00.114Z,13.31
2023-06-30T13:21:27.128Z,14.63
2023-06-30T13:23:54.042Z,14.74
2023-06-30T13:26:21.157Z,14.12
2023-06-30T13:28:48.567Z,13.05
2023-06-30T13:31:15.360Z,12.89
2023-06-30T13:33:42.268Z,12.24
2023-06-30T13:36:09.722Z,10.89
2023-06-30T13:38:36.575Z,11.72
2023-06-30T13:41:03.539Z,12.28
2023-06-30T13:43:30.530Z,13.02
2023-06-30T13:45:59.813Z,13.22
2023-06-30T13:48:26.657Z,12.75
2023-06-30T13:50:53.494Z,12.74
2023-06-30T13:53:20.769Z,12.47
2023-06-30T13:55:48.119Z,12.52
2023-06-30T13:58:15.115Z,13.43
2023-06-30T14:00:42.128Z,13.96
2023-06-30T14:03:09.277Z,14.28
2023-06-30T14:05:36.480Z,13.96
2023-06-30T14:08:03.348Z,13.73
2023-06-30T14:10:30.614Z,13.22
2023-06-30T14:12:57.535Z,13.20
2023-06-30T14:15:24.495Z,13.08
2023-06-30T14:17:51.453Z,13.60
2023-06-30T14:20:18.283Z,13.35
2023-06-30T14:22:45.185Z,13.48
2023-06-30T14:25:23.545Z,13.48
2023-06-30T14:27:51.485Z,13.74
2023-06-30T14:30:18.603Z,12.76
2023-06-30T14:32:47.144Z,12.82
2023-06-30T14:35:14.296Z,13.25
2023-06-30T14:37:41.115Z,13.11
2023-06-30T14:40:08.653Z,13.72
2023-06-30T14:42:35.682Z,13.93
2023-06-30T14:45:02.600Z,12.56
2023-06-30T14:47:31.120Z,12.67
2023-06-30T14:49:58.834Z,12.23
2023-06-30T14:52:26.189Z,12.25
2023-06-30T14:54:53.066Z,12.19
2023-06-30T14:57:20.097Z,11.10
2023-06-30T14:59:47.020Z,11.07
2023-06-30T15:02:15.017Z,10.53
2023-06-30T15:04:41.991Z,10.84
2023-06-30T15:07:08.839Z,10.67
2023-06-30T15:09:35.667Z,9.48
2023-06-30T15:12:02.456Z,9.47
2023-06-30T15:16:55.909Z,9.19
2023-06-30T15:19:22.699Z,8.61
2023-06-30T15:21:50.732Z,9.51
2023-06-30T15:24:17.719Z,9.33
2023-06-30T15:26:44.917Z,9.27
2023-06-30T15:29:15.252Z,10.21
2023-06-30T15:31:42.852Z,10.43
2023-06-30T15:34:09.643Z,9.43
2023-06-30T15:36:36.443Z,9.97
2023-06-30T15:39:04.541Z,10.25
2023-06-30T15:41:31.401Z,9.53
2023-06-30T15:43:58.310Z,8.36
2023-06-30T15:46:26.371Z,8.86
2023-06-30T15:48:53.110Z,9.69
2023-06-30T15:51:21.248Z,8.82
2023-06-30T15:53:48.645Z,9.10
2023-06-30T15:56:15.732Z,9.57
2023-06-30T15:58:42.508Z,8.99
2023-06-30T16:01:09.471Z,9.29
2023-06-30T16:03:38.875Z,9.12
2023-06-30T16:06:05.959Z,9.08
2023-06-30T16:08:33.318Z,9.11
2023-06-30T16:11:00.124Z,9.80
2023-06-30T16:13:26.908Z,10.49
2023-06-30T16:15:53.910Z,11.06
2023-06-30T16:18:21.024Z,10.94
2023-06-30T16:20:47.879Z,9.49
2023-06-30T16:23:14.738Z,9.58
2023-06-30T16:25:41.582Z,10.03
2023-06-30T16:28:08.678Z,10.40
2023-06-30T16:30:37.416Z,10.75
2023-06-30T16:33:04.630Z,10.74
2023-06-30T16:35:32.307Z,10.37
2023-06-30T16:37:59.299Z,10.91
2023-06-30T16:40:26.468Z,10.61
2023-06-30T16:42:54.187Z,10.75
2023-06-30T16:45:21.188Z,10.42
2023-06-30T16:47:48.297Z,10.52
2023-06-30T16:50:16.540Z,10.65
2023-06-30T16:52:44.138Z,10.63
2023-06-30T16:55:12.350Z,10.60
2023-06-30T16:57:40.044Z,9.82
2023-06-30T17:00:09.206Z,9.81
2023-06-30T17:02:36.317Z,9.89
2023-06-30T17:05:04.060Z,9.91
2023-06-30T17:07:30.963Z,9.24
2023-06-30T17:09:57.705Z,9.11
2023-06-30T17:12:24.607Z,8.98
2023-06-30T17:14:51.491Z,9.34
2023-06-30T17:17:18.441Z,9.76
2023-06-30T17:19:45.437Z,9.52
2023-06-30T17:22:12.263Z,9.96
2023-06-30T17:24:39.099Z,9.63
2023-06-30T17:27:06.322Z,9.88
2023-06-30T17:29:33.134Z,9.49
2023-06-30T17:31:59.928Z,10.12
2023-06-30T17:34:26.715Z,9.49
2023-06-30T17:37:01.485Z,8.77
2023-06-30T17:39:28.429Z,9.07
2023-06-30T17:41:55.149Z,9.02
2023-06-30T17:44:21.977Z,9.48
2023-06-30T17:46:48.828Z,8.97
2023-06-30T17:49:29.216Z,8.92
2023-06-30T17:51:56.210Z,9.54
2023-06-30T17:54:26.664Z,9.11
2023-06-30T17:56:53.447Z,8.28
2023-06-30T17:59:20.287Z,8.49
2023-06-30T18:01:47.388Z,8.27
2023-06-30T18:04:15.059Z,9.01
2023-06-30T18:07:02.837Z,9.14
2023-06-30T18:09:30.668Z,9.16
2023-06-30T18:11:58.939Z,9.03
2023-06-30T18:14:27.225Z,8.53
2023-06-30T18:16:54.057Z,8.17
2023-06-30T18:19:22.806Z,8.31
2023-06-30T18:21:51.438Z,8.05
2023-06-30T18:24:19.145Z,8.46
2023-06-30T18:26:50.214Z,8.10
2023-06-30T18:29:22.694Z,7.85
2023-06-30T18:31:54.604Z,7.29
2023-06-30T18:34:22.347Z,7.84
2023-06-30T18:36:49.154Z,7.33
2023-06-30T18:39:17.778Z,7.23
2023-06-30T18:41:44.644Z,7.83
2023-06-30T18:44:11.468Z,7.34
2023-06-30T18:46:38.370Z,7.31
2023-06-30T18:49:07.728Z,6.94
2023-06-30T18:51:36.984Z,7.27
2023-06-30T18:54:03.966Z,7.37
2023-06-30T18:56:30.841Z,7.29
2023-06-30T18:59:02.523Z,7.38
2023-06-30T19:01:30.088Z,7.41
2023-06-30T19:03:57.765Z,7.15
2023-06-30T19:06:25.843Z,7.56
2023-06-30T19:08:56.434Z,7.41
2023-06-30T19:11:23.889Z,7.65
2023-06-30T19:13:51.210Z,7.96
2023-06-30T19:16:18.421Z,7.55
2023-06-30T19:18:45.565Z,7.23
2023-06-30T19:21:12.540Z,7.56
2023-06-30T19:23:41.880Z,7.63
2023-06-30T19:26:09.970Z,7.64
2023-06-30T19:28:37.483Z,7.84
2023-06-30T19:31:04.374Z,8.22
2023-06-30T19:33:32.565Z,7.80
2023-06-30T19:35:59.499Z,7.58
2023-06-30T19:38:26.632Z,7.74
2023-06-30T19:40:55.219Z,7.64
2023-06-30T19:43:22.331Z,7.85
2023-06-30T19:45:50.149Z,7.75
2023-06-30T19:48:17.728Z,7.64
2023-06-30T19:50:44.646Z,7.82
2023-06-30T19:53:11.475Z,7.45
2023-06-30T19:55:38.255Z,7.67
2023-06-30T19:58:06.100Z,7.85
2023-06-30T20:00:33.895Z,7.86
2023-06-30T20:03:01.333Z,7.68
2023-06-30T20:05:28.267Z,7.80
2023-06-30T20:07:56.264Z,7.44
2023-06-30T20:10:23.221Z,7.31
2023-06-30T20:12:50.949Z,7.26
2023-06-30T20:15:18.145Z,7.31
2023-06-30T20:17:45.364Z,7.17
2023-06-30T20:23:02.239Z,7.21
2023-06-30T20:25:29.080Z,7.11
2023-06-30T20:27:55.881Z,7.04
2023-06-30T20:30:22.748Z,6.90
2023-06-30T20:32:49.990Z,6.99
2023-06-30T20:35:20.046Z,6.66
2023-06-30T20:37:47.670Z,7.04
2023-06-30T20:40:14.474Z,6.96
2023-06-30T20:42:41.543Z,7.20
2023-06-30T20:45:08.716Z,6.94
2023-06-30T20:47:36.228Z,6.94
2023-06-30T20:50:04.385Z,7.13
2023-06-30T20:52:31.536Z,7.42
2023-06-30T20:54:58.278Z,7.59
2023-06-30T20:57:25.074Z,7.14
2023-06-30T20:59:51.870Z,6.85
2023-06-30T21:02:18.706Z,7.19
2023-06-30T21:04:45.501Z,7.41
2023-06-30T21:07:12.337Z,7.59
2023-06-30T21:09:39.107Z,6.92
2023-06-30T21:12:06.409Z,7.34
2023-06-30T21:14:33.295Z,7.08
2023-06-30T21:17:00.071Z,7.38
2023-06-30T21:19:27.078Z,7.08
2023-06-30T21:21:54.153Z,6.62
2023-06-30T21:24:20.954Z,6.74
2023-06-30T21:26:47.712Z,6.89
2023-06-30T21:29:14.457Z,6.78
2023-06-30T21:31:41.223Z,6.99
2023-06-30T21:34:08.013Z,6.56
2023-06-30T21:36:38.248Z,6.57
2023-06-30T21:39:06.694Z,6.90
2023-06-30T21:41:33.693Z,6.04
2023-06-30T21:44:00.515Z,5.96
2023-06-30T21:46:27.519Z,5.76
2023-06-30T21:48:54.396Z,5.97
2023-06-30T21:51:21.268Z,5.60
2023-06-30T21:53:48.049Z,5.49
2023-06-30T21:56:14.846Z,5.29
2023-06-30T21:58:41.721Z,5.38
2023-06-30T22:01:08.645Z,5.94
2023-06-30T22:03:35.558Z,5.73
2023-06-30T22:06:02.769Z,5.06
2023-06-30T22:08:29.924Z,5.27
2023-06-30T22:10:58.716Z,5.76
2023-06-30T22:13:25.850Z,5.47
2023-06-30T22:15:52.916Z,5.52
2023-06-30T22:18:19.824Z,5.32
2023-06-30T22:20:46.730Z,5.26
2023-06-30T22:23:13.836Z,4.99
2023-06-30T22:25:40.848Z,5.51
2023-06-30T22:28:07.798Z,5.32
2023-06-30T22:30:34.720Z,5.26
2023-06-30T22:33:01.590Z,5.08
2023-06-30T22:35:28.479Z,5.19
2023-06-30T22:37:55.277Z,5.48
2023-06-30T22:40:22.441Z,5.31
2023-06-30T22:42:49.638Z,5.07
2023-06-30T22:45:16.677Z,5.38
2023-06-30T22:47:44.223Z,5.44
2023-06-30T22:50:11.277Z,5.30
2023-06-30T22:52:39.811Z,5.36
2023-06-30T22:55:10.491Z,5.66
2023-06-30T22:57:37.617Z,5.35
2023-06-30T23:00:06.022Z,5.72
2023-06-30T23:02:33.164Z,5.52
2023-06-30T23:05:00.132Z,5.13
2023-06-30T23:07:27.151Z,5.63
2023-06-30T23:09:54.053Z,5.48
2023-06-30T23:12:20.824Z,4.99
2023-06-30T23:14:47.625Z,5.49
2023-06-30T23:17:16.895Z,5.57
2023-06-30T23:19:49.925Z,5.61
2023-06-30T23:22:18.013Z,5.89
2023-06-30T23:24:49.722Z,5.98
2023-06-30T23:27:17.773Z,5.55
2023-06-30T23:29:50.557Z,5.27
2023-06-30T23:32:20.434Z,5.62
2023-06-30T23:34:48.480Z,5.17
2023-06-30T23:37:17.876Z,5.41
2023-06-30T23:39:45.633Z,5.70
2023-06-30T23:42:12.465Z,5.33
2023-06-30T23:44:39.291Z,5.33
2023-06-30T23:47:15.422Z,5.28
2023-06-30T23:49:42.635Z,4.79
2023-06-30T23:52:09.937Z,4.85
2023-06-30T23:54:36.796Z,5.05
2023-06-30T23:57:03.981Z,5.14
2023-06-30T23:59:30.783Z,5.12
